Time;durP1;ratioP1;P1;durP2;ratioP2;P2;SDS_P1;SDS_P2;PMS_P1;PMS_P2;Temp;Humidity;BMP_temperature;BMP_pressure;BME280_temperature;BME280_humidity;BME280_pressure;Samples;Min_cycle;Max_cycle;Signal;HPM_P1;HPM_P2
2022/02/16 00:00:06;;;;;;;2.10;1.65;;;;;;;;;;5001684;28;20062;-69
2022/02/16 00:02:38;;;;;;;2.78;1.38;;;;;;;;;;5000161;28;20127;-69
2022/02/16 00:05:08;;;;;;;3.47;1.60;;;;;;;;;;5006327;28;20137;-69
2022/02/16 00:07:39;;;;;;;2.97;1.75;;;;;;;;;;5006447;28;20128;-69
2022/02/16 00:10:09;;;;;;;2.92;1.67;;;;;;;;;;5008414;28;20050;-69
2022/02/16 00:12:37;;;;;;;5.53;1.83;;;;;;;;;;5004484;28;20073;-69
2022/02/16 00:15:07;;;;;;;1.92;1.50;;;;;;;;;;5005352;28;20497;-69
2022/02/16 00:17:37;;;;;;;1.88;1.30;;;;;;;;;;5007884;28;20486;-69
2022/02/16 00:20:06;;;;;;;4.00;2.05;;;;;;;;;;5007656;28;20045;-69
2022/02/16 00:22:53;;;;;;;2.35;1.33;;;;;;;;;;2300070;28;10023856;-69
2022/02/16 00:25:21;;;;;;;3.30;1.40;;;;;;;;;;3627050;28;10001380;-69
2022/02/16 00:27:50;;;;;;;2.05;1.48;;;;;;;;;;5003711;28;20148;-69
2022/02/16 00:30:18;;;;;;;3.50;1.48;;;;;;;;;;5008746;28;20732;-69
2022/02/16 00:32:48;;;;;;;2.38;1.45;;;;;;;;;;5008520;28;20042;-69
2022/02/16 00:35:16;;;;;;;4.78;1.55;;;;;;;;;;5009283;28;20141;-69
2022/02/16 00:37:45;;;;;;;2.33;1.45;;;;;;;;;;5007388;28;20141;-69
2022/02/16 00:40:14;;;;;;;2.45;1.40;;;;;;;;;;5007507;28;20060;-69
2022/02/16 00:42:42;;;;;;;1.63;1.23;;;;;;;;;;5006761;28;20038;-69
2022/02/16 00:45:11;;;;;;;3.42;1.52;;;;;;;;;;5007170;28;20053;-69
2022/02/16 00:47:39;;;;;;;2.67;1.55;;;;;;;;;;5003334;28;20062;-69
2022/02/16 00:50:10;;;;;;;2.10;1.15;;;;;;;;;;5003145;28;20038;-69
2022/02/16 00:52:38;;;;;;;2.13;1.40;;;;;;;;;;5005562;28;20092;-69
2022/02/16 00:55:07;;;;;;;5.30;1.70;;;;;;;;;;5006453;28;20145;-69
2022/02/16 00:57:35;;;;;;;3.03;1.27;;;;;;;;;;5007799;28;20557;-69
2022/02/16 01:00:05;;;;;;;3.15;1.35;;;;;;;;;;5008717;28;20529;-68
2022/02/16 01:02:34;;;;;;;2.25;1.17;;;;;;;;;;5007681;28;20108;-68
2022/02/16 01:05:02;;;;;;;1.60;1.05;;;;;;;;;;5007449;28;20084;-69
2022/02/16 01:07:32;;;;;;;5.68;1.30;;;;;;;;;;5003162;28;20053;-69
2022/02/16 01:10:01;;;;;;;2.60;1.17;;;;;;;;;;5008706;28;20460;-69
2022/02/16 01:12:30;;;;;;;1.25;0.88;;;;;;;;;;5003941;28;20049;-69
2022/02/16 01:14:59;;;;;;;1.45;0.77;;;;;;;;;;5001446;28;20057;-68
2022/02/16 01:17:27;;;;;;;1.15;0.80;;;;;;;;;;4999748;28;20149;-68
2022/02/16 01:19:55;;;;;;;1.50;0.70;;;;;;;;;;5004153;28;20092;-68
2022/02/16 01:22:24;;;;;;;1.02;0.57;;;;;;;;;;5005005;28;20046;-68
2022/02/16 01:24:54;;;;;;;1.23;0.80;;;;;;;;;;5004935;28;20953;-68
2022/02/16 01:27:22;;;;;;;1.52;0.77;;;;;;;;;;4998123;28;20082;-68
2022/02/16 01:29:50;;;;;;;0.40;0.30;;;;;;;;;;4998056;28;20124;-68
2022/02/16 01:32:19;;;;;;;1.23;0.55;;;;;;;;;;5000282;28;20712;-68
2022/02/16 01:34:47;;;;;;;0.73;0.45;;;;;;;;;;5000466;28;20053;-68
2022/02/16 01:37:16;;;;;;;1.42;0.55;;;;;;;;;;4998851;28;20137;-67
2022/02/16 01:39:44;;;;;;;2.42;0.50;;;;;;;;;;4999454;28;20052;-68
2022/02/16 01:42:18;;;;;;;1.23;0.55;;;;;;;;;;5002911;28;20140;-68
2022/02/16 01:44:46;;;;;;;2.15;0.77;;;;;;;;;;5005539;28;20050;-68
2022/02/16 01:47:14;;;;;;;0.65;0.50;;;;;;;;;;5002204;28;20136;-68
2022/02/16 01:49:43;;;;;;;1.98;0.60;;;;;;;;;;5006489;28;20056;-68
2022/02/16 01:52:12;;;;;;;0.47;0.32;;;;;;;;;;5006453;28;20612;-68
2022/02/16 01:54:40;;;;;;;1.10;0.50;;;;;;;;;;5005974;28;20577;-68
2022/02/16 01:57:09;;;;;;;2.03;0.82;;;;;;;;;;5006454;28;20555;-68
2022/02/16 01:59:38;;;;;;;0.52;0.50;;;;;;;;;;5008565;28;20144;-68
2022/02/16 02:02:07;;;;;;;0.75;0.50;;;;;;;;;;5006554;28;20046;-68
2022/02/16 02:04:36;;;;;;;1.08;0.60;;;;;;;;;;5007592;28;20117;-68
2022/02/16 02:07:04;;;;;;;0.73;0.30;;;;;;;;;;5008052;28;20046;-68
2022/02/16 02:09:33;;;;;;;0.60;0.50;;;;;;;;;;5007226;28;20085;-68
2022/02/16 02:12:01;;;;;;;1.67;0.68;;;;;;;;;;5008955;28;20049;-68
2022/02/16 02:14:29;;;;;;;3.60;0.63;;;;;;;;;;5010876;28;20153;-68
2022/02/16 02:17:13;;;;;;;0.90;0.60;;;;;;;;;;2469379;28;10023698;-69
2022/02/16 02:19:41;;;;;;;1.15;0.50;;;;;;;;;;3626337;28;10001379;-68
2022/02/16 02:22:11;;;;;;;1.00;0.50;;;;;;;;;;5009416;28;20141;-68
2022/02/16 02:24:39;;;;;;;1.00;0.30;;;;;;;;;;5009568;28;20085;-68
2022/02/16 02:27:08;;;;;;;0.60;0.38;;;;;;;;;;5008877;28;20056;-68
2022/02/16 02:29:39;;;;;;;0.40;0.40;;;;;;;;;;5008887;28;20042;-68
2022/02/16 02:32:07;;;;;;;0.70;0.40;;;;;;;;;;5007457;28;20092;-68
2022/02/16 02:34:36;;;;;;;1.58;0.50;;;;;;;;;;5009358;28;20128;-68
2022/02/16 02:37:06;;;;;;;0.80;0.40;;;;;;;;;;5008959;28;20056;-68
2022/02/16 02:39:36;;;;;;;0.73;0.65;;;;;;;;;;5009959;28;20144;-68
2022/02/16 02:42:04;;;;;;;1.20;0.40;;;;;;;;;;5006603;28;20140;-68
2022/02/16 02:44:34;;;;;;;0.75;0.50;;;;;;;;;;5008820;28;20046;-68
2022/02/16 02:47:03;;;;;;;0.65;0.60;;;;;;;;;;5003793;28;20550;-68
2022/02/16 02:49:32;;;;;;;2.33;0.50;;;;;;;;;;5001704;28;20544;-68
2022/02/16 02:52:00;;;;;;;0.50;0.50;;;;;;;;;;5001024;28;20050;-68
2022/02/16 02:54:29;;;;;;;1.45;0.65;;;;;;;;;;5001384;28;20042;-68
2022/02/16 02:56:58;;;;;;;2.92;0.57;;;;;;;;;;5002244;28;20523;-68
2022/02/16 02:59:26;;;;;;;0.98;0.60;;;;;;;;;;5004270;28;20144;-68
2022/02/16 03:01:55;;;;;;;1.88;0.80;;;;;;;;;;5001959;28;20059;-68
2022/02/16 03:04:23;;;;;;;1.65;0.77;;;;;;;;;;5001554;28;20324;-68
2022/02/16 03:06:52;;;;;;;0.93;0.70;;;;;;;;;;5001616;28;20129;-68
2022/02/16 03:09:20;;;;;;;1.83;1.17;;;;;;;;;;5002369;28;20142;-68
2022/02/16 03:11:48;;;;;;;1.02;0.93;;;;;;;;;;5001685;28;20077;-68
2022/02/16 03:14:18;;;;;;;2.35;0.80;;;;;;;;;;5001449;28;20744;-68
2022/02/16 03:16:46;;;;;;;1.20;0.98;;;;;;;;;;4999242;28;20144;-68
2022/02/16 03:19:14;;;;;;;1.65;0.80;;;;;;;;;;5001109;28;20086;-68
2022/02/16 03:21:43;;;;;;;0.70;0.70;;;;;;;;;;4999685;28;20589;-68
2022/02/16 03:24:11;;;;;;;1.25;0.82;;;;;;;;;;4999460;28;20148;-68
2022/02/16 03:26:39;;;;;;;2.45;0.90;;;;;;;;;;4999222;28;20148;-68
2022/02/16 03:29:07;;;;;;;0.77;0.70;;;;;;;;;;5001193;28;20049;-68
2022/02/16 03:31:37;;;;;;;1.63;1.00;;;;;;;;;;5000606;28;20045;-68
2022/02/16 03:34:05;;;;;;;2.47;1.05;;;;;;;;;;5006554;28;20042;-68
2022/02/16 03:36:34;;;;;;;1.58;1.10;;;;;;;;;;4999951;28;20164;-68
2022/02/16 03:39:02;;;;;;;3.50;1.10;;;;;;;;;;5001238;28;20062;-68
2022/02/16 03:41:30;;;;;;;1.70;1.20;;;;;;;;;;5002152;28;20100;-68
2022/02/16 03:43:59;;;;;;;1.67;0.90;;;;;;;;;;5002531;28;20072;-68
2022/02/16 03:46:27;;;;;;;1.83;0.82;;;;;;;;;;5002367;28;20103;-68
2022/02/16 03:48:57;;;;;;;1.65;0.88;;;;;;;;;;5005670;28;20081;-68
2022/02/16 03:51:25;;;;;;;2.45;0.93;;;;;;;;;;5008713;28;20128;-68
2022/02/16 03:53:53;;;;;;;0.95;0.82;;;;;;;;;;5002339;28;20727;-68
2022/02/16 03:56:22;;;;;;;1.23;0.95;;;;;;;;;;5003041;28;20139;-68
2022/02/16 03:58:50;;;;;;;2.47;1.05;;;;;;;;;;4998473;28;20154;-68
2022/02/16 04:01:18;;;;;;;1.52;0.90;;;;;;;;;;4998636;28;20498;-68
2022/02/16 04:03:47;;;;;;;2.47;0.95;;;;;;;;;;4998353;28;20060;-68
2022/02/16 04:06:17;;;;;;;1.25;0.77;;;;;;;;;;4997545;28;20054;-68
2022/02/16 04:08:45;;;;;;;1.77;0.90;;;;;;;;;;5000155;28;20486;-68
2022/02/16 04:11:15;;;;;;;0.63;0.60;;;;;;;;;;5003679;28;20161;-68
2022/02/16 04:13:58;;;;;;;0.70;0.60;;;;;;;;;;2417100;28;10023662;-68
2022/02/16 04:16:26;;;;;;;0.88;0.60;;;;;;;;;;3620359;28;10001111;-68
2022/02/16 04:18:54;;;;;;;1.05;0.82;;;;;;;;;;5006637;28;20045;-68
2022/02/16 04:21:24;;;;;;;0.80;0.75;;;;;;;;;;5004120;28;20141;-68
2022/02/16 04:23:52;;;;;;;1.48;0.68;;;;;;;;;;4999842;28;20054;-68
2022/02/16 04:26:20;;;;;;;1.67;0.80;;;;;;;;;;4997984;28;20133;-68
2022/02/16 04:28:49;;;;;;;0.50;0.50;;;;;;;;;;4999051;28;20038;-68
2022/02/16 04:31:18;;;;;;;1.08;0.80;;;;;;;;;;5000873;28;20142;-68
2022/02/16 04:33:46;;;;;;;1.67;0.90;;;;;;;;;;5000462;28;20129;-68
2022/02/16 04:36:25;;;;;;;1.10;0.80;;;;;;;;;;5002307;28;20077;-68
2022/02/16 04:38:55;;;;;;;0.95;0.55;;;;;;;;;;5001219;28;20486;-68
2022/02/16 04:41:24;;;;;;;1.50;0.55;;;;;;;;;;5001461;28;20049;-68
2022/02/16 04:43:53;;;;;;;0.98;0.75;;;;;;;;;;5000165;28;20518;-68
2022/02/16 04:46:21;;;;;;;0.98;0.43;;;;;;;;;;4997988;28;20127;-68
2022/02/16 04:48:49;;;;;;;1.70;0.88;;;;;;;;;;4999801;28;20420;-68
2022/02/16 04:51:17;;;;;;;0.60;0.60;;;;;;;;;;5001729;28;20140;-68
2022/02/16 04:53:46;;;;;;;0.70;0.70;;;;;;;;;;4999725;28;20593;-68
2022/02/16 04:56:16;;;;;;;1.35;0.70;;;;;;;;;;4997608;28;20387;-68
2022/02/16 04:58:44;;;;;;;1.65;0.93;;;;;;;;;;5003787;28;20060;-68
2022/02/16 05:01:14;;;;;;;1.67;0.90;;;;;;;;;;4999460;28;20042;-68
2022/02/16 05:03:42;;;;;;;0.73;0.40;;;;;;;;;;4999395;28;20452;-68
2022/02/16 05:06:11;;;;;;;1.83;0.70;;;;;;;;;;4999430;28;20136;-68
2022/02/16 05:08:39;;;;;;;0.60;0.60;;;;;;;;;;4999685;28;20192;-68
2022/02/16 05:11:08;;;;;;;0.80;0.70;;;;;;;;;;5001237;28;20541;-68
2022/02/16 05:13:37;;;;;;;1.35;0.85;;;;;;;;;;5000443;28;20056;-68
2022/02/16 05:16:09;;;;;;;1.75;0.65;;;;;;;;;;4999567;28;20054;-68
2022/02/16 05:18:37;;;;;;;0.95;0.68;;;;;;;;;;5001007;28;20125;-68
2022/02/16 05:21:08;;;;;;;1.25;0.90;;;;;;;;;;5003621;28;20510;-68
2022/02/16 05:23:37;;;;;;;0.50;0.50;;;;;;;;;;5001315;28;20050;-68
2022/02/16 05:26:08;;;;;;;1.05;0.73;;;;;;;;;;4999413;28;20608;-68
2022/02/16 05:28:38;;;;;;;0.90;0.57;;;;;;;;;;4999244;28;20061;-68
2022/02/16 05:31:06;;;;;;;0.98;0.77;;;;;;;;;;4996898;28;20053;-68
2022/02/16 05:33:36;;;;;;;1.50;0.60;;;;;;;;;;5003115;28;20129;-68
2022/02/16 05:36:08;;;;;;;0.50;0.47;;;;;;;;;;5002516;28;20100;-68
2022/02/16 05:38:36;;;;;;;0.63;0.50;;;;;;;;;;5000028;28;20520;-68
2022/02/16 05:41:07;;;;;;;2.80;0.52;;;;;;;;;;5005411;28;20052;-68
2022/02/16 05:43:35;;;;;;;0.43;0.40;;;;;;;;;;5002009;28;20151;-68
2022/02/16 05:46:07;;;;;;;0.70;0.47;;;;;;;;;;5002838;28;20161;-68
2022/02/16 05:48:36;;;;;;;0.75;0.55;;;;;;;;;;5001551;28;20049;-68
2022/02/16 05:51:06;;;;;;;0.45;0.45;;;;;;;;;;5001863;28;20053;-68
2022/02/16 05:53:35;;;;;;;1.08;0.60;;;;;;;;;;5004688;28;20048;-68
2022/02/16 05:56:10;;;;;;;1.80;0.60;;;;;;;;;;5001912;28;20219;-68
2022/02/16 05:58:38;;;;;;;0.82;0.50;;;;;;;;;;5008310;28;20456;-68
2022/02/16 06:01:08;;;;;;;0.93;0.52;;;;;;;;;;5008211;28;20173;-68
2022/02/16 06:03:38;;;;;;;0.63;0.57;;;;;;;;;;5011252;28;20096;-68
2022/02/16 06:06:06;;;;;;;1.80;0.60;;;;;;;;;;5005773;28;20053;-67
2022/02/16 06:08:35;;;;;;;0.68;0.52;;;;;;;;;;5011150;28;20085;-68
2022/02/16 06:11:10;;;;;;;3.33;0.60;;;;;;;;;;5009458;28;20042;-68
2022/02/16 06:13:38;;;;;;;0.82;0.60;;;;;;;;;;5004451;28;20041;-68
2022/02/16 06:16:08;;;;;;;0.80;0.52;;;;;;;;;;5009664;28;20129;-67
2022/02/16 06:18:37;;;;;;;0.50;0.50;;;;;;;;;;5009983;28;20132;-67
2022/02/16 06:21:06;;;;;;;0.85;0.50;;;;;;;;;;5009918;28;20104;-67
2022/02/16 06:23:35;;;;;;;1.15;0.70;;;;;;;;;;5011558;28;20136;-67
2022/02/16 06:26:06;;;;;;;0.50;0.50;;;;;;;;;;5008740;28;20133;-67
2022/02/16 06:28:34;;;;;;;0.85;0.47;;;;;;;;;;5010264;28;20037;-67
2022/02/16 06:31:06;;;;;;;0.68;0.50;;;;;;;;;;5009585;28;20088;-67
2022/02/16 06:33:36;;;;;;;0.60;0.50;;;;;;;;;;5010365;28;20077;-67
2022/02/16 06:36:07;;;;;;;1.42;0.63;;;;;;;;;;5006393;28;20121;-68
2022/02/16 06:38:35;;;;;;;1.40;0.88;;;;;;;;;;5009980;28;20062;-68
2022/02/16 06:41:07;;;;;;;0.73;0.50;;;;;;;;;;5009934;28;20190;-67
2022/02/16 06:43:35;;;;;;;2.45;0.80;;;;;;;;;;5008405;28;20128;-67
2022/02/16 06:46:07;;;;;;;1.33;0.60;;;;;;;;;;5008186;28;20128;-68
2022/02/16 06:48:37;;;;;;;6.22;0.95;;;;;;;;;;5008863;28;20045;-67
2022/02/16 06:51:08;;;;;;;1.70;0.63;;;;;;;;;;5007669;28;20081;-67
2022/02/16 06:53:36;;;;;;;1.10;0.45;;;;;;;;;;5008039;28;20133;-68
2022/02/16 06:56:07;;;;;;;2.10;0.90;;;;;;;;;;5006658;28;20046;-68
2022/02/16 06:58:35;;;;;;;0.70;0.60;;;;;;;;;;5008668;28;20140;-68
2022/02/16 07:01:07;;;;;;;1.30;0.80;;;;;;;;;;5010290;28;21295;-68
2022/02/16 07:03:37;;;;;;;0.98;0.70;;;;;;;;;;5010429;28;20052;-68
2022/02/16 07:06:08;;;;;;;1.38;0.63;;;;;;;;;;5010084;28;20425;-68
2022/02/16 07:08:37;;;;;;;0.80;0.50;;;;;;;;;;5006921;28;20474;-68
2022/02/16 07:11:08;;;;;;;2.58;0.70;;;;;;;;;;5006577;28;20099;-68
2022/02/16 07:13:37;;;;;;;1.23;0.60;;;;;;;;;;5010966;28;20042;-68
2022/02/16 07:16:08;;;;;;;3.20;0.70;;;;;;;;;;5009558;28;20062;-68
2022/02/16 07:18:40;;;;;;;7.38;1.13;;;;;;;;;;4998230;28;20921;-68
2022/02/16 07:21:09;;;;;;;2.88;0.70;;;;;;;;;;5010372;28;20102;-68
2022/02/16 07:23:38;;;;;;;1.48;0.75;;;;;;;;;;5009277;28;20077;-68
2022/02/16 07:26:06;;;;;;;0.50;0.50;;;;;;;;;;5008193;28;20042;-68
2022/02/16 07:28:35;;;;;;;1.23;0.60;;;;;;;;;;5008358;28;20042;-68
2022/02/16 07:31:06;;;;;;;0.63;0.40;;;;;;;;;;5009068;28;20066;-68
2022/02/16 07:33:35;;;;;;;2.50;0.70;;;;;;;;;;5010413;28;20073;-68
2022/02/16 07:36:08;;;;;;;0.98;0.73;;;;;;;;;;5007820;28;20463;-68
2022/02/16 07:38:36;;;;;;;2.00;0.70;;;;;;;;;;5008839;28;20096;-68
2022/02/16 07:41:08;;;;;;;2.33;0.70;;;;;;;;;;5008491;28;20045;-68
2022/02/16 07:43:36;;;;;;;1.23;0.65;;;;;;;;;;5008971;28;20085;-68
2022/02/16 07:46:08;;;;;;;2.17;0.70;;;;;;;;;;5008461;28;20556;-68
2022/02/16 07:48:37;;;;;;;1.08;0.50;;;;;;;;;;5010345;28;20057;-68
2022/02/16 07:51:09;;;;;;;3.97;0.80;;;;;;;;;;4994615;28;20088;-67
2022/02/16 07:53:38;;;;;;;1.83;0.70;;;;;;;;;;5001222;28;20082;-67
2022/02/16 07:56:07;;;;;;;1.17;0.60;;;;;;;;;;5004307;28;20553;-68
2022/02/16 07:58:36;;;;;;;2.50;0.70;;;;;;;;;;5007821;28;20088;-66
2022/02/16 08:01:07;;;;;;;1.60;0.70;;;;;;;;;;5005118;28;20498;-66
2022/02/16 08:03:35;;;;;;;1.13;0.55;;;;;;;;;;5009359;28;20060;-66
2022/02/16 08:06:07;;;;;;;3.80;1.17;;;;;;;;;;5008318;28;20120;-66
2022/02/16 08:08:37;;;;;;;3.00;0.75;;;;;;;;;;5007071;28;20133;-66
2022/02/16 08:11:07;;;;;;;0.90;0.52;;;;;;;;;;5011879;28;20054;-66
2022/02/16 08:13:37;;;;;;;0.65;0.50;;;;;;;;;;5008157;28;20042;-67
2022/02/16 08:16:08;;;;;;;1.58;0.60;;;;;;;;;;5007028;28;20376;-67
2022/02/16 08:18:37;;;;;;;1.65;0.60;;;;;;;;;;5008080;28;20103;-67
2022/02/16 08:21:06;;;;;;;0.50;0.43;;;;;;;;;;5007832;28;20362;-67
2022/02/16 08:23:35;;;;;;;1.35;0.50;;;;;;;;;;5008323;28;20443;-67
2022/02/16 08:26:08;;;;;;;1.23;0.50;;;;;;;;;;5007404;28;20096;-67
2022/02/16 08:28:37;;;;;;;2.00;0.43;;;;;;;;;;5007047;28;20041;-67
2022/02/16 08:31:08;;;;;;;3.65;0.70;;;;;;;;;;5007478;28;20057;-67
2022/02/16 08:33:37;;;;;;;1.10;0.60;;;;;;;;;;5008203;28;20045;-67
2022/02/16 08:36:11;;;;;;;1.20;0.63;;;;;;;;;;5007682;28;20061;-68
2022/02/16 08:38:40;;;;;;;0.50;0.40;;;;;;;;;;5008592;28;20046;-67
2022/02/16 08:41:12;;;;;;;0.70;0.50;;;;;;;;;;5007572;28;20051;-67
2022/02/16 08:43:49;;;;;;;1.93;0.64;;;;;;;;;;4838914;28;10001240;-69
2022/02/16 08:46:17;;;;;;;2.15;0.60;;;;;;;;;;686635;28;10001877;-67
2022/02/16 08:48:46;;;;;;;0.80;0.40;;;;;;;;;;4994241;28;20045;-67
2022/02/16 08:51:15;;;;;;;0.88;0.45;;;;;;;;;;5007757;28;20402;-67
2022/02/16 08:53:44;;;;;;;0.52;0.52;;;;;;;;;;5008435;28;20054;-67
2022/02/16 08:56:14;;;;;;;3.70;0.65;;;;;;;;;;5006845;28;20060;-67
2022/02/16 08:58:42;;;;;;;0.65;0.40;;;;;;;;;;5007229;28;20092;-67
2022/02/16 09:01:13;;;;;;;2.25;0.57;;;;;;;;;;5007075;28;20048;-66
2022/02/16 09:03:44;;;;;;;2.80;0.43;;;;;;;;;;5005272;28;20065;-67
2022/02/16 09:06:13;;;;;;;1.83;0.47;;;;;;;;;;5006963;28;20132;-67
2022/02/16 09:08:42;;;;;;;0.70;0.55;;;;;;;;;;5008154;28;20096;-68
2022/02/16 09:11:12;;;;;;;1.58;0.50;;;;;;;;;;5009993;28;20090;-67
2022/02/16 09:13:42;;;;;;;3.13;0.68;;;;;;;;;;5011212;28;20524;-68
2022/02/16 09:16:11;;;;;;;0.65;0.50;;;;;;;;;;5009920;28;20417;-69
2022/02/16 09:18:40;;;;;;;1.10;0.57;;;;;;;;;;5010713;28;20058;-68
2022/02/16 09:21:09;;;;;;;0.77;0.40;;;;;;;;;;5009207;28;20541;-68
2022/02/16 09:23:39;;;;;;;1.67;0.68;;;;;;;;;;5011774;28;20041;-68
2022/02/16 09:26:08;;;;;;;4.38;0.90;;;;;;;;;;5010286;28;20537;-68
2022/02/16 09:28:38;;;;;;;1.20;0.60;;;;;;;;;;5010051;28;20053;-68
2022/02/16 09:31:08;;;;;;;0.95;0.52;;;;;;;;;;5005887;28;20057;-68
2022/02/16 09:33:37;;;;;;;1.60;0.68;;;;;;;;;;5011688;28;20042;-68
2022/02/16 09:36:09;;;;;;;0.68;0.35;;;;;;;;;;5010412;28;20058;-68
2022/02/16 09:38:37;;;;;;;1.90;0.45;;;;;;;;;;5009408;28;20081;-67
2022/02/16 09:41:09;;;;;;;1.45;0.50;;;;;;;;;;5008750;28;20132;-68
2022/02/16 09:43:37;;;;;;;1.15;0.60;;;;;;;;;;5004283;28;20455;-69
2022/02/16 09:46:11;;;;;;;2.85;0.60;;;;;;;;;;5008284;28;20046;-69
2022/02/16 09:48:41;;;;;;;1.45;0.43;;;;;;;;;;5010848;28;20092;-69
2022/02/16 09:51:11;;;;;;;7.47;1.02;;;;;;;;;;5008463;28;20088;-69
2022/02/16 09:53:40;;;;;;;0.80;0.55;;;;;;;;;;5006564;28;20120;-69
2022/02/16 09:56:10;;;;;;;1.40;0.80;;;;;;;;;;5005542;28;20486;-69
2022/02/16 09:58:40;;;;;;;1.33;0.70;;;;;;;;;;5007462;28;20425;-69
2022/02/16 10:01:11;;;;;;;1.95;0.60;;;;;;;;;;5001356;28;20123;-69
2022/02/16 10:04:01;;;;;;;3.43;0.77;;;;;;;;;;4893203;28;10001040;-70
2022/02/16 10:06:37;;;;;;;3.22;0.60;;;;;;;;;;1377171;28;10002140;-69
2022/02/16 10:09:06;;;;;;;1.83;0.65;;;;;;;;;;4994591;28;20125;-69
2022/02/16 10:11:35;;;;;;;3.70;0.80;;;;;;;;;;5010520;28;20045;-69
2022/02/16 10:14:16;;;;;;;2.42;0.40;;;;;;;;;;5010700;28;20136;-70
2022/02/16 10:16:45;;;;;;;2.17;0.50;;;;;;;;;;5009781;28;20050;-69
2022/02/16 10:19:15;;;;;;;1.95;0.40;;;;;;;;;;5011629;28;20042;-68
2022/02/16 10:22:00;;;;;;;3.10;0.70;;;;;;;;;;5011227;28;20057;-69
2022/02/16 10:24:29;;;;;;;1.27;0.52;;;;;;;;;;5010571;28;20061;-70
2022/02/16 10:27:01;;;;;;;1.73;0.52;;;;;;;;;;5004392;28;20113;-70
2022/02/16 10:29:30;;;;;;;1.88;0.77;;;;;;;;;;5009077;28;20456;-69
2022/02/16 10:31:59;;;;;;;1.42;0.60;;;;;;;;;;5009670;28;20421;-69
2022/02/16 10:34:49;;;;;;;1.33;0.75;;;;;;;;;;5011024;28;20056;-68
2022/02/16 10:37:19;;;;;;;1.02;0.80;;;;;;;;;;5008371;28;20056;-68
2022/02/16 10:40:14;;;;;;;1.50;0.70;;;;;;;;;;5010915;28;20042;-68
2022/02/16 10:42:55;;;;;;;6.65;0.90;;;;;;;;;;4975634;28;20409;-68
2022/02/16 10:45:24;;;;;;;1.13;0.50;;;;;;;;;;5012089;28;20050;-68
2022/02/16 10:48:02;;;;;;;3.25;0.60;;;;;;;;;;5009135;28;20053;-68
2022/02/16 10:50:33;;;;;;;1.13;0.60;;;;;;;;;;5011940;28;20403;-69
2022/02/16 10:53:02;;;;;;;1.10;0.55;;;;;;;;;;5010621;28;20585;-68
2022/02/16 10:55:41;;;;;;;1.35;0.65;;;;;;;;;;5009326;28;20054;-69
2022/02/16 10:58:11;;;;;;;0.70;0.50;;;;;;;;;;5006797;28;20064;-68
2022/02/16 11:00:41;;;;;;;1.95;0.52;;;;;;;;;;5010390;28;20081;-68
2022/02/16 11:03:11;;;;;;;0.25;0.25;;;;;;;;;;5004025;28;20060;-68
2022/02/16 11:05:45;;;;;;;0.32;0.32;;;;;;;;;;5009102;28;20532;-68
2022/02/16 11:08:14;;;;;;;1.35;0.40;;;;;;;;;;5006475;28;20049;-68
2022/02/16 11:10:46;;;;;;;0.57;0.30;;;;;;;;;;5010470;28;20062;-68
2022/02/16 11:13:18;;;;;;;0.40;0.40;;;;;;;;;;5010222;28;20159;-68
2022/02/16 11:15:47;;;;;;;2.63;0.40;;;;;;;;;;5008183;28;20046;-68
2022/02/16 11:18:17;;;;;;;0.32;0.22;;;;;;;;;;5000723;28;20060;-68
2022/02/16 11:21:06;;;;;;;0.30;0.30;;;;;;;;;;5009879;28;20060;-68
2022/02/16 11:23:39;;;;;;;0.30;0.30;;;;;;;;;;5004870;28;20133;-67
2022/02/16 11:26:30;;;;;;;0.32;0.30;;;;;;;;;;5006990;28;20081;-67
2022/02/16 11:28:59;;;;;;;0.85;0.30;;;;;;;;;;5007826;28;20540;-67
2022/02/16 11:31:28;;;;;;;0.38;0.30;;;;;;;;;;5009860;28;20077;-67
2022/02/16 11:34:15;;;;;;;0.75;0.30;;;;;;;;;;5006765;28;20133;-67
2022/02/16 11:36:49;;;;;;;0.40;0.30;;;;;;;;;;5002075;28;20081;-67
2022/02/16 11:39:35;;;;;;;1.90;0.30;;;;;;;;;;5007543;28;20046;-67
2022/02/16 11:42:03;;;;;;;0.80;0.40;;;;;;;;;;5008195;28;20108;-67
2022/02/16 11:44:47;;;;;;;1.00;0.30;;;;;;;;;;5008149;28;20050;-67
2022/02/16 11:47:31;;;;;;;0.40;0.38;;;;;;;;;;5011578;28;20052;-67
2022/02/16 11:49:59;;;;;;;0.32;0.30;;;;;;;;;;5007320;28;20053;-67
2022/02/16 11:52:37;;;;;;;0.70;0.40;;;;;;;;;;4999795;28;20069;-67
2022/02/16 11:55:06;;;;;;;0.20;0.20;;;;;;;;;;5006126;28;20045;-67
2022/02/16 11:57:42;;;;;;;0.20;0.20;;;;;;;;;;5005627;28;20449;-67
2022/02/16 12:00:31;;;;;;;0.32;0.30;;;;;;;;;;5002921;28;20054;-68
2022/02/16 12:03:23;;;;;;;1.17;0.32;;;;;;;;;;5009313;28;20056;-67
2022/02/16 12:05:56;;;;;;;0.22;0.20;;;;;;;;;;5007353;28;20132;-67
2022/02/16 12:08:27;;;;;;;0.38;0.30;;;;;;;;;;5004390;28;20046;-67
2022/02/16 12:10:57;;;;;;;0.15;0.15;;;;;;;;;;5006776;28;20089;-67
2022/02/16 12:13:30;;;;;;;0.43;0.30;;;;;;;;;;5005613;28;20054;-67
2022/02/16 12:16:00;;;;;;;0.60;0.40;;;;;;;;;;5007536;28;20056;-67
2022/02/16 12:18:29;;;;;;;1.02;0.40;;;;;;;;;;5005220;28;20512;-67
2022/02/16 12:20:57;;;;;;;0.50;0.30;;;;;;;;;;5007372;28;20065;-67
2022/02/16 12:23:28;;;;;;;1.85;0.50;;;;;;;;;;5007598;28;20050;-67
2022/02/16 12:26:07;;;;;;;0.80;0.38;;;;;;;;;;5007579;28;20057;-67
2022/02/16 12:28:58;;;;;;;0.85;0.35;;;;;;;;;;5007227;28;20050;-67
2022/02/16 12:31:28;;;;;;;0.30;0.30;;;;;;;;;;5005939;28;20054;-67
2022/02/16 12:34:04;;;;;;;0.30;0.30;;;;;;;;;;5008646;28;20045;-67
2022/02/16 12:36:35;;;;;;;1.42;0.70;;;;;;;;;;5006360;28;20405;-67
2022/02/16 12:39:06;;;;;;;1.33;0.30;;;;;;;;;;5007921;28;20046;-67
2022/02/16 12:41:35;;;;;;;1.20;0.40;;;;;;;;;;5006593;28;20057;-68
2022/02/16 12:44:06;;;;;;;0.30;0.30;;;;;;;;;;5008006;28;20228;-68
2022/02/16 12:46:37;;;;;;;0.68;0.20;;;;;;;;;;5008324;28;20081;-69
2022/02/16 12:49:06;;;;;;;2.85;0.38;;;;;;;;;;5008651;28;20049;-68
2022/02/16 12:51:36;;;;;;;0.63;0.35;;;;;;;;;;5007919;28;20046;-69
2022/02/16 12:54:07;;;;;;;0.63;0.20;;;;;;;;;;5006294;28;20042;-68
2022/02/16 12:56:38;;;;;;;0.13;0.13;;;;;;;;;;5003032;28;20617;-68
2022/02/16 12:59:16;;;;;;;1.35;0.30;;;;;;;;;;5007632;28;20058;-68
2022/02/16 13:01:46;;;;;;;0.60;0.30;;;;;;;;;;5006464;28;20464;-68
2022/02/16 13:04:15;;;;;;;0.40;0.30;;;;;;;;;;5007918;28;20042;-68
2022/02/16 13:06:45;;;;;;;0.20;0.20;;;;;;;;;;5005843;28;20145;-68
2022/02/16 13:09:18;;;;;;;0.40;0.30;;;;;;;;;;5006920;28;20046;-68
2022/02/16 13:11:51;;;;;;;0.30;0.30;;;;;;;;;;5005898;28;20710;-68
2022/02/16 13:14:23;;;;;;;0.38;0.38;;;;;;;;;;5006824;28;20049;-68
2022/02/16 13:16:54;;;;;;;1.67;0.20;;;;;;;;;;5004814;28;20081;-69
2022/02/16 13:19:46;;;;;;;0.75;0.38;;;;;;;;;;5008717;28;20086;-68
2022/02/16 13:22:19;;;;;;;0.22;0.20;;;;;;;;;;4988724;28;20482;-68
2022/02/16 13:24:54;;;;;;;0.40;0.20;;;;;;;;;;5005934;28;20135;-69
2022/02/16 13:27:23;;;;;;;2.28;0.35;;;;;;;;;;4999207;28;20054;-68
2022/02/16 13:30:02;;;;;;;0.30;0.30;;;;;;;;;;5002714;28;20133;-68
2022/02/16 13:32:32;;;;;;;0.73;0.20;;;;;;;;;;5004567;28;20046;-68
2022/02/16 13:35:14;;;;;;;0.40;0.30;;;;;;;;;;636146;28;10002626;-69
2022/02/16 13:37:59;;;;;;;2.17;0.82;;;;;;;;;;5006567;28;20409;-69
2022/02/16 13:40:31;;;;;;;0.63;0.30;;;;;;;;;;5005874;28;20494;-69
2022/02/16 13:43:00;;;;;;;0.98;0.40;;;;;;;;;;5003171;28;20038;-70
2022/02/16 13:45:31;;;;;;;0.50;0.22;;;;;;;;;;5001517;28;20486;-68
2022/02/16 13:48:00;;;;;;;0.55;0.30;;;;;;;;;;5000700;28;20046;-69
2022/02/16 13:50:30;;;;;;;2.75;0.40;;;;;;;;;;5000967;28;20868;-68
2022/02/16 13:53:00;;;;;;;0.95;0.28;;;;;;;;;;4999834;28;20050;-68
2022/02/16 13:55:43;;;;;;;1.65;0.25;;;;;;;;;;5006421;28;20058;-69
2022/02/16 13:58:13;;;;;;;0.47;0.32;;;;;;;;;;4991149;28;20076;-68
2022/02/16 14:01:07;;;;;;;0.70;0.65;;;;;;;;;;4994848;28;20528;-68
2022/02/16 14:03:37;;;;;;;0.33;0.20;;;;;;;;;;5010009;28;20541;-69
2022/02/16 14:06:09;;;;;;;0.20;0.20;;;;;;;;;;5010344;28;20061;-69
2022/02/16 14:08:38;;;;;;;0.85;0.40;;;;;;;;;;5010012;28;20100;-67
2022/02/16 14:11:08;;;;;;;0.25;0.20;;;;;;;;;;5009706;28;20104;-68
2022/02/16 14:13:38;;;;;;;0.38;0.30;;;;;;;;;;5008135;28;20045;-69
2022/02/16 14:16:07;;;;;;;0.43;0.17;;;;;;;;;;5008792;28;20084;-69
2022/02/16 14:18:36;;;;;;;1.05;0.30;;;;;;;;;;5010647;28;20099;-69
2022/02/16 14:21:20;;;;;;;0.75;0.25;;;;;;;;;;4064316;28;10002059;-69
2022/02/16 14:23:49;;;;;;;0.85;0.30;;;;;;;;;;2071489;28;10001972;-69
2022/02/16 14:26:20;;;;;;;2.78;0.30;;;;;;;;;;5004247;28;20510;-69
2022/02/16 14:28:48;;;;;;;0.22;0.22;;;;;;;;;;5010732;28;20053;-69
2022/02/16 14:31:17;;;;;;;0.38;0.25;;;;;;;;;;5008733;28;20100;-69
2022/02/16 14:34:06;;;;;;;0.17;0.17;;;;;;;;;;5005574;28;20061;-68
2022/02/16 14:36:39;;;;;;;0.57;0.20;;;;;;;;;;5009381;28;20068;-69
2022/02/16 14:39:08;;;;;;;0.93;0.20;;;;;;;;;;5010551;28;20052;-69
2022/02/16 14:41:41;;;;;;;0.80;0.30;;;;;;;;;;5008944;28;20060;-69
2022/02/16 14:44:12;;;;;;;0.20;0.20;;;;;;;;;;5008558;28;20490;-69
2022/02/16 14:46:42;;;;;;;0.17;0.17;;;;;;;;;;5010252;28;20058;-69
2022/02/16 14:49:11;;;;;;;1.05;0.20;;;;;;;;;;5009029;28;20506;-69
2022/02/16 14:51:43;;;;;;;0.20;0.20;;;;;;;;;;5010272;28;20042;-69
2022/02/16 14:54:19;;;;;;;0.52;0.30;;;;;;;;;;5006942;28;20387;-69
2022/02/16 14:56:50;;;;;;;0.32;0.32;;;;;;;;;;5004087;28;20478;-69
2022/02/16 14:59:18;;;;;;;0.10;0.10;;;;;;;;;;5021639;28;20068;-69
2022/02/16 15:01:47;;;;;;;0.80;0.52;;;;;;;;;;5012076;28;20072;-69